Time;durP1;ratioP1;P1;durP2;ratioP2;P2;SDS_P1;SDS_P2;PMS_P1;PMS_P2;Temp;Humidity;BMP_temperature;BMP_pressure;BME280_temperature;BME280_humidity;BME280_pressure;Samples;Min_cycle;Max_cycle;Signal;HPM_P1;HPM_P2
2023/03/06 00:00:25;;;;;;;27.27;12.75;;;;;;;0.23;100.00;95042.28;1026490;28;20102;-67
2023/03/06 00:00:58;;;;;;;28.40;13.36;;;;;;;0.22;100.00;95040.69;1022517;29;20730;-68
2023/03/06 00:01:29;;;;;;;26.18;13.18;;;;;;;0.26;100.00;95050.56;1022613;29;20127;-68
2023/03/06 00:01:59;;;;;;;28.70;11.95;;;;;;;0.28;100.00;95051.16;1024262;28;20603;-68
2023/03/06 00:02:30;;;;;;;26.88;12.88;;;;;;;0.26;100.00;95053.16;1022971;28;20071;-68
2023/03/06 00:03:00;;;;;;;30.75;13.77;;;;;;;0.26;100.00;95053.16;1022453;29;20066;-68
2023/03/06 00:03:32;;;;;;;28.73;13.48;;;;;;;0.26;100.00;95053.94;1018442;29;20069;-68
2023/03/06 00:04:02;;;;;;;30.66;12.40;;;;;;;0.26;100.00;95053.94;1018756;29;20028;-68
2023/03/06 00:04:33;;;;;;;29.13;13.35;;;;;;;0.25;100.00;95052.38;1022755;28;20398;-68
2023/03/06 00:05:04;;;;;;;30.00;13.77;;;;;;;0.25;100.00;95051.59;1026213;28;20065;-64
2023/03/06 00:05:34;;;;;;;31.15;13.82;;;;;;;0.24;100.00;95050.81;1026653;28;20053;-68
2023/03/06 00:06:05;;;;;;;30.98;13.35;;;;;;;0.23;100.00;95049.19;1026442;28;20022;-68
2023/03/06 00:06:35;;;;;;;32.25;13.98;;;;;;;0.25;100.00;95046.44;1022484;29;20027;-64
2023/03/06 00:07:06;;;;;;;25.63;12.57;;;;;;;0.25;100.00;95038.69;1017842;29;20075;-66
2023/03/06 00:07:36;;;;;;;23.02;12.55;;;;;;;0.25;100.00;95046.44;1018644;29;20027;-68
2023/03/06 00:08:07;;;;;;;30.33;12.25;;;;;;;0.19;100.00;95030.00;1014484;29;20663;-68
2023/03/06 00:08:37;;;;;;;31.30;14.32;;;;;;;0.31;100.00;95040.41;1014694;29;20062;-67
2023/03/06 00:09:08;;;;;;;30.02;13.80;;;;;;;0.22;100.00;95038.09;1018341;29;20450;-67
2023/03/06 00:09:39;;;;;;;29.00;13.63;;;;;;;0.27;100.00;95044.41;1018024;29;20114;-67
2023/03/06 00:10:23;;;;;;;26.35;13.13;;;;;;;0.26;100.00;95040.25;1018295;29;20015;-68
2023/03/06 00:10:54;;;;;;;27.14;12.30;;;;;;;0.17;100.00;95032.03;1014488;29;20127;-66
2023/03/06 00:11:25;;;;;;;25.18;12.60;;;;;;;0.26;100.00;95040.25;1016516;29;20146;-67
2023/03/06 00:11:55;;;;;;;30.80;13.82;;;;;;;0.23;100.00;95039.69;1018460;29;20513;-66
2023/03/06 00:12:26;;;;;;;30.30;12.70;;;;;;;0.25;100.00;95038.69;1018938;28;20024;-68
2023/03/06 00:13:02;;;;;;;31.48;13.45;;;;;;;0.17;100.00;95026.88;1026291;28;20031;-66
2023/03/06 00:13:33;;;;;;;29.60;13.06;;;;;;;0.25;100.00;95041.28;1025546;28;20093;-66
2023/03/06 00:14:04;;;;;;;29.76;13.84;;;;;;;0.24;100.00;95035.31;1027246;28;20077;-68
2023/03/06 00:14:34;;;;;;;30.60;13.65;;;;;;;0.25;100.00;95036.09;1026550;28;20476;-67
2023/03/06 00:15:05;;;;;;;29.13;13.50;;;;;;;0.19;100.00;95027.44;1021393;29;20106;-67
2023/03/06 00:15:36;;;;;;;28.16;13.24;;;;;;;0.21;100.00;95033.97;1014529;29;20047;-68
2023/03/06 00:16:07;;;;;;;32.80;13.60;;;;;;;0.18;100.00;95018.13;1014783;29;20041;-68
2023/03/06 00:16:38;;;;;;;33.62;13.56;;;;;;;0.23;100.00;95029.38;1018961;29;20572;-68
2023/03/06 00:17:08;;;;;;;27.15;13.15;;;;;;;0.26;100.00;95027.34;1022599;28;20058;-68
2023/03/06 00:17:39;;;;;;;29.92;12.95;;;;;;;0.20;100.00;95018.69;1030595;28;20074;-68
2023/03/06 00:18:09;;;;;;;30.85;13.98;;;;;;;0.25;100.00;95030.94;1026564;28;20117;-68
2023/03/06 00:18:40;;;;;;;30.30;13.40;;;;;;;0.22;100.00;95027.78;1022525;28;20047;-68
2023/03/06 00:19:11;;;;;;;28.08;12.96;;;;;;;0.21;100.00;95031.38;1022441;29;20783;-67
2023/03/06 00:19:41;;;;;;;30.05;13.45;;;;;;;0.19;100.00;95023.06;1022363;28;20160;-67
2023/03/06 00:20:12;;;;;;;31.27;14.07;;;;;;;0.20;100.00;95026.41;1022333;29;20042;-68
2023/03/06 00:20:42;;;;;;;30.23;13.25;;;;;;;0.23;100.00;95028.56;1018092;29;20027;-68
2023/03/06 00:21:13;;;;;;;27.10;12.70;;;;;;;0.25;100.00;95033.53;1014534;29;20577;-67
2023/03/06 00:21:43;;;;;;;26.95;13.55;;;;;;;0.25;100.00;95030.94;1018392;29;20067;-67
2023/03/06 00:22:14;;;;;;;28.08;13.90;;;;;;;0.23;100.00;95031.97;1018346;29;20024;-67
2023/03/06 00:22:44;;;;;;;30.55;13.77;;;;;;;0.22;100.00;95030.38;1018558;29;20035;-65
2023/03/06 00:23:15;;;;;;;27.00;12.57;;;;;;;0.22;100.00;95027.00;1014704;29;20038;-66
2023/03/06 00:23:45;;;;;;;27.35;13.02;;;;;;;0.20;100.00;95026.41;1014476;29;20582;-68
2023/03/06 00:24:16;;;;;;;29.70;13.02;;;;;;;0.18;100.00;95016.31;1022570;28;20030;-67
2023/03/06 00:24:46;;;;;;;31.25;12.98;;;;;;;0.21;100.00;95028.78;1022580;28;20459;-65
2023/03/06 00:25:20;;;;;;;29.75;13.15;;;;;;;0.18;100.00;95020.69;1022431;29;20078;-67
2023/03/06 00:25:50;;;;;;;30.30;12.40;;;;;;;0.20;100.00;95029.81;1012665;29;20100;-66
2023/03/06 00:26:21;;;;;;;28.48;13.30;;;;;;;0.23;100.00;95029.38;1015198;29;20076;-68
2023/03/06 00:26:51;;;;;;;28.67;12.65;;;;;;;0.15;100.00;95016.75;1018984;29;20031;-69
2023/03/06 00:27:24;;;;;;;28.60;13.13;;;;;;;0.23;100.00;95018.25;1022339;28;20141;-68
2023/03/06 00:27:55;;;;;;;28.50;12.96;;;;;;;0.22;100.00;95017.47;1018452;29;20136;-67
2023/03/06 00:28:26;;;;;;;28.23;12.52;;;;;;;0.21;100.00;95021.06;1010617;29;20784;-68
2023/03/06 00:28:56;;;;;;;29.98;13.73;;;;;;;0.15;100.00;95009.00;1014900;29;20159;-66
2023/03/06 00:29:27;;;;;;;26.42;12.80;;;;;;;0.15;100.00;95009.00;1017892;29;20518;-68
2023/03/06 00:29:58;;;;;;;31.20;13.25;;;;;;;0.18;100.00;95011.16;1022145;29;20019;-68
2023/03/06 00:30:28;;;;;;;26.73;13.20;;;;;;;0.23;100.00;95013.09;1014535;29;20024;-66
2023/03/06 00:30:59;;;;;;;23.85;12.27;;;;;;;0.26;100.00;95011.88;1018433;29;20302;-68
2023/03/06 00:31:30;;;;;;;27.20;13.02;;;;;;;0.18;100.00;95007.81;1018663;29;20134;-67
2023/03/06 00:32:00;;;;;;;27.77;12.27;;;;;;;0.23;100.00;95018.25;1018435;29;20060;-69
2023/03/06 00:32:31;;;;;;;32.05;12.60;;;;;;;0.17;100.00;95009.59;1018406;29;20156;-70
2023/03/06 00:33:01;;;;;;;29.35;13.27;;;;;;;0.17;100.00;95004.44;1026514;28;20031;-68
2023/03/06 00:33:31;;;;;;;27.70;12.52;;;;;;;0.17;100.00;95007.03;1018679;29;20035;-68
2023/03/06 00:34:02;;;;;;;30.20;13.52;;;;;;;0.21;100.00;95010.75;1014605;29;20031;-67
2023/03/06 00:34:32;;;;;;;27.90;12.32;;;;;;;0.23;100.00;95013.91;1022724;29;20106;-67
2023/03/06 00:35:03;;;;;;;31.17;13.75;;;;;;;0.28;100.00;95008.09;1022742;28;20031;-67
2023/03/06 00:35:34;;;;;;;30.52;12.82;;;;;;;0.27;100.00;95013.44;1022776;28;20090;-68
2023/03/06 00:36:05;;;;;;;27.42;12.55;;;;;;;0.22;100.00;95007.16;1026360;28;20022;-68
2023/03/06 00:36:35;;;;;;;26.96;13.46;;;;;;;0.24;100.00;95014.69;1014713;29;20040;-66
2023/03/06 00:37:06;;;;;;;27.55;12.65;;;;;;;0.24;100.00;95009.53;1014616;29;20043;-68
2023/03/06 00:37:36;;;;;;;32.10;14.25;;;;;;;0.27;100.00;95003.94;1014613;29;20823;-68
2023/03/06 00:38:08;;;;;;;30.40;12.77;;;;;;;0.20;100.00;95003.19;1018405;29;20031;-68
2023/03/06 00:38:39;;;;;;;30.62;14.02;;;;;;;0.25;100.00;95007.72;1026654;28;20690;-67
2023/03/06 00:39:09;;;;;;;31.85;14.02;;;;;;;0.26;100.00;95011.88;1026781;28;20027;-69
2023/03/06 00:39:40;;;;;;;28.17;12.50;;;;;;;0.26;100.00;95011.88;1029855;28;20034;-66
2023/03/06 00:40:12;;;;;;;29.10;13.00;;;;;;;0.26;100.00;95001.56;1029953;28;20026;-68
2023/03/06 00:40:43;;;;;;;32.50;13.92;;;;;;;0.26;100.00;95002.34;1026296;28;20776;-69
2023/03/06 00:41:13;;;;;;;32.20;13.90;;;;;;;0.23;100.00;95007.94;1021928;29;20131;-68
2023/03/06 00:41:44;;;;;;;27.85;12.77;;;;;;;0.25;100.00;95010.31;1014924;29;20036;-67
2023/03/06 00:42:15;;;;;;;36.05;14.10;;;;;;;0.21;100.00;94997.84;1006742;29;20816;-67
2023/03/06 00:42:46;;;;;;;27.18;12.92;;;;;;;0.25;100.00;95007.72;1017653;29;20028;-70
2023/03/06 00:43:17;;;;;;;30.02;14.07;;;;;;;0.25;100.00;95000.78;1022739;28;20172;-68
2023/03/06 00:43:47;;;;;;;26.48;12.40;;;;;;;0.22;100.00;95004.56;1020881;28;20023;-67
2023/03/06 00:44:18;;;;;;;34.28;13.75;;;;;;;0.25;100.00;95000.78;1026009;28;20481;-68
2023/03/06 00:44:48;;;;;;;31.27;13.00;;;;;;;0.23;100.00;95007.94;1022374;29;20023;-69
2023/03/06 00:45:18;;;;;;;31.08;13.45;;;;;;;0.21;100.00;95002.22;1022628;28;20038;-67
2023/03/06 00:45:49;;;;;;;30.70;13.43;;;;;;;0.22;100.00;95004.56;1022338;28;20054;-68
2023/03/06 00:46:19;;;;;;;29.42;13.73;;;;;;;0.23;100.00;94998.44;1018458;29;20035;-67
2023/03/06 00:46:50;;;;;;;32.38;13.75;;;;;;;0.26;100.00;95009.28;1022328;28;20023;-67
2023/03/06 00:47:20;;;;;;;32.55;14.13;;;;;;;0.26;100.00;94999.75;1018313;29;20020;-66
2023/03/06 00:47:51;;;;;;;31.23;14.45;;;;;;;0.26;100.00;95001.56;1017682;29;20063;-67
2023/03/06 00:48:21;;;;;;;33.28;12.98;;;;;;;0.25;100.00;94997.41;1017144;29;20028;-68
2023/03/06 00:48:52;;;;;;;29.27;13.80;;;;;;;0.26;100.00;94999.75;1022200;29;20023;-68
2023/03/06 00:49:22;;;;;;;30.63;13.52;;;;;;;0.27;100.00;95000.53;1021926;29;20046;-68
2023/03/06 00:49:52;;;;;;;27.30;13.00;;;;;;;0.26;100.00;94996.41;1022053;28;20567;-67
2023/03/06 00:50:23;;;;;;;33.28;13.95;;;;;;;0.25;100.00;94997.41;1021995;29;20042;-68
2023/03/06 00:50:53;;;;;;;34.15;13.55;;;;;;;0.27;100.00;94993.63;1022689;29;20031;-67
2023/03/06 00:51:24;;;;;;;31.20;13.95;;;;;;;0.27;100.00;94995.38;1022807;28;20027;-69
2023/03/06 00:51:54;;;;;;;28.55;14.02;;;;;;;0.23;100.00;94995.03;1026842;28;20114;-67
2023/03/06 00:52:25;;;;;;;29.80;13.45;;;;;;;0.21;100.00;94987.53;1026222;28;20085;-68
2023/03/06 00:52:55;;;;;;;29.65;13.23;;;;;;;0.22;100.00;94990.88;1026298;28;20061;-66
2023/03/06 00:53:26;;;;;;;28.20;14.10;;;;;;;0.24;100.00;94991.47;1022165;28;20046;-66
2023/03/06 00:53:56;;;;;;;39.65;15.20;;;;;;;0.26;100.00;94994.59;1022396;28;20043;-66
2023/03/06 00:54:27;;;;;;;31.55;13.05;;;;;;;0.24;100.00;94991.47;1026151;28;20030;-67
2023/03/06 00:54:57;;;;;;;23.63;12.45;;;;;;;0.26;100.00;94992.03;1022253;28;20854;-68
2023/03/06 00:55:29;;;;;;;26.23;12.70;;;;;;;0.22;100.00;94978.00;1026260;28;20030;-67
2023/03/06 00:56:00;;;;;;;26.74;12.90;;;;;;;0.26;100.00;94986.88;1022513;29;20035;-67
2023/03/06 00:56:30;;;;;;;26.30;12.68;;;;;;;0.18;100.00;94985.38;1022490;28;20114;-68
2023/03/06 00:57:01;;;;;;;29.40;13.48;;;;;;;0.18;100.00;94980.22;1022430;29;20031;-68
2023/03/06 00:57:31;;;;;;;28.55;13.50;;;;;;;0.27;100.00;94983.31;1018776;29;20510;-68
2023/03/06 00:58:01;;;;;;;26.38;12.15;;;;;;;0.26;100.00;94986.06;1018399;29;20107;-68
2023/03/06 00:58:32;;;;;;;27.75;12.73;;;;;;;0.26;100.00;94986.88;1014273;29;20036;-69
2023/03/06 00:59:02;;;;;;;32.30;13.45;;;;;;;0.23;100.00;94980.38;1018444;29;20476;-69
2023/03/06 00:59:33;;;;;;;26.58;12.23;;;;;;;0.22;100.00;94981.34;1017726;28;20094;-68
2023/03/06 01:00:04;;;;;;;30.83;14.40;;;;;;;0.19;100.00;94979.19;1018182;29;20031;-66
2023/03/06 01:00:34;;;;;;;29.15;12.68;;;;;;;0.19;100.00;94981.00;1018289;29;20055;-67
2023/03/06 01:01:05;;;;;;;30.80;14.05;;;;;;;0.18;100.00;94974.28;1018177;29;20269;-66
2023/03/06 01:01:35;;;;;;;27.92;13.77;;;;;;;0.12;100.00;94965.59;1016911;29;20172;-68
2023/03/06 01:02:06;;;;;;;27.23;12.90;;;;;;;0.04;100.00;94954.81;1018123;29;20147;-68
2023/03/06 01:02:36;;;;;;;31.70;13.48;;;;;;;0.20;100.00;94977.41;1022407;29;20046;-68
2023/03/06 01:03:07;;;;;;;28.25;15.18;;;;;;;0.24;100.00;94978.56;1022149;29;20031;-68
2023/03/06 01:03:37;;;;;;;29.67;13.43;;;;;;;0.23;100.00;94976.97;1016672;29;20024;-68
2023/03/06 01:04:08;;;;;;;29.75;14.13;;;;;;;0.19;100.00;94971.47;1022098;29;20027;-66
2023/03/06 01:04:38;;;;;;;29.90;13.32;;;;;;;0.21;100.00;94969.47;1026290;28;20046;-67
2023/03/06 01:05:09;;;;;;;26.50;13.48;;;;;;;0.21;100.00;94974.63;1027421;28;20628;-69
2023/03/06 01:05:39;;;;;;;32.92;12.98;;;;;;;0.18;100.00;94977.63;1030430;28;20148;-67
2023/03/06 01:06:10;;;;;;;35.47;14.35;;;;;;;0.21;100.00;94979.78;1030111;28;20444;-68
2023/03/06 01:06:40;;;;;;;27.15;13.50;;;;;;;0.22;100.00;94978.78;1026317;28;20043;-65
2023/03/06 01:07:11;;;;;;;30.95;13.52;;;;;;;0.16;100.00;94971.09;1030240;28;20025;-66
2023/03/06 01:07:41;;;;;;;28.42;13.50;;;;;;;0.21;100.00;94977.19;1026313;28;20030;-68
2023/03/06 01:08:12;;;;;;;28.70;13.27;;;;;;;0.18;100.00;94969.91;1026137;28;20039;-68
2023/03/06 01:08:42;;;;;;;32.47;13.93;;;;;;;0.18;100.00;94971.69;1022114;28;20023;-68
2023/03/06 01:09:13;;;;;;;29.77;13.40;;;;;;;0.19;100.00;94961.16;1021730;28;20035;-68
2023/03/06 01:09:43;;;;;;;29.50;13.65;;;;;;;0.18;100.00;94964.72;1025935;28;20670;-68
2023/03/06 01:10:13;;;;;;;28.40;13.07;;;;;;;0.19;100.00;94965.50;1026177;28;20038;-67
2023/03/06 01:10:44;;;;;;;30.73;13.85;;;;;;;0.17;100.00;94958.00;1022207;29;20040;-67
2023/03/06 01:11:14;;;;;;;27.95;13.45;;;;;;;0.18;100.00;94963.94;1022546;29;20031;-68
2023/03/06 01:11:45;;;;;;;29.23;13.55;;;;;;;0.16;100.00;94959.00;1022301;29;20031;-67
2023/03/06 01:12:16;;;;;;;30.75;13.25;;;;;;;0.14;100.00;94955.06;1022359;28;20046;-69
2023/03/06 01:12:46;;;;;;;31.35;14.35;;;;;;;0.11;100.00;94942.63;1022564;29;20031;-68
2023/03/06 01:13:16;;;;;;;31.52;14.15;;;;;;;0.17;100.00;94957.22;1010856;29;20114;-67
2023/03/06 01:13:47;;;;;;;32.50;14.80;;;;;;;0.14;100.00;94950.69;1013084;29;20032;-69
2023/03/06 01:14:18;;;;;;;27.33;13.60;;;;;;;0.16;100.00;94948.69;1014773;29;20028;-67
2023/03/06 01:14:48;;;;;;;30.67;13.38;;;;;;;0.09;100.00;94935.06;1011089;29;20126;-68
2023/03/06 01:15:19;;;;;;;29.55;12.82;;;;;;;0.09;100.00;94937.66;1023682;28;20038;-67
2023/03/06 01:15:49;;;;;;;28.58;12.57;;;;;;;0.11;100.00;94942.63;1026487;28;20022;-68
2023/03/06 01:16:20;;;;;;;27.02;13.32;;;;;;;0.11;100.00;94943.41;1022696;29;20250;-68
2023/03/06 01:16:50;;;;;;;31.65;13.65;;;;;;;0.14;100.00;94948.13;1022346;29;20038;-67
2023/03/06 01:17:21;;;;;;;34.60;14.55;;;;;;;0.13;100.00;94941.38;1016471;29;20032;-67
2023/03/06 01:17:53;;;;;;;30.63;13.45;;;;;;;0.09;100.00;94937.66;1018162;28;20152;-68
2023/03/06 01:18:23;;;;;;;25.86;12.66;;;;;;;0.17;100.00;94945.13;1022430;29;20019;-66
2023/03/06 01:18:54;;;;;;;30.73;14.05;;;;;;;0.14;100.00;94942.97;1016800;29;20038;-66
2023/03/06 01:19:24;;;;;;;33.08;13.73;;;;;;;0.14;100.00;94942.97;1021759;29;20553;-67
2023/03/06 01:19:56;;;;;;;26.35;14.05;;;;;;;0.15;100.00;94936.00;1021576;29;20156;-67
2023/03/06 01:20:26;;;;;;;30.26;14.72;;;;;;;0.08;100.00;94920.63;1018442;29;20490;-68
2023/03/06 01:20:57;;;;;;;25.55;13.10;;;;;;;0.15;100.00;94934.22;1018379;29;20043;-68
2023/03/06 01:21:27;;;;;;;30.25;13.65;;;;;;;0.08;100.00;94923.19;1018624;29;20469;-65
2023/03/06 01:21:58;;;;;;;30.17;13.55;;;;;;;0.13;100.00;94936.22;1022361;29;20038;-68
2023/03/06 01:22:28;;;;;;;32.13;13.85;;;;;;;0.15;100.00;94930.84;1018373;29;20024;-67
2023/03/06 01:22:59;;;;;;;24.95;12.05;;;;;;;0.13;100.00;94930.28;1024378;28;20034;-68
2023/03/06 01:23:30;;;;;;;30.38;13.96;;;;;;;0.14;100.00;94929.28;1022379;28;20368;-68
2023/03/06 01:24:00;;;;;;;26.30;12.82;;;;;;;0.10;100.00;94930.69;1026194;28;20038;-66
2023/03/06 01:24:31;;;;;;;34.03;14.55;;;;;;;0.06;100.00;94930.34;1022232;29;20383;-68
2023/03/06 01:25:01;;;;;;;33.97;14.95;;;;;;;0.09;100.00;94929.91;1022425;28;20034;-68
2023/03/06 01:25:32;;;;;;;30.02;13.90;;;;;;;0.07;100.00;94929.38;1030010;28;20671;-68
2023/03/06 01:26:02;;;;;;;34.42;15.68;;;;;;;0.08;100.00;94928.34;1026305;28;20033;-68
2023/03/06 01:26:33;;;;;;;30.17;12.38;;;;;;;0.08;100.00;94928.34;1026145;28;20058;-67
2023/03/06 01:27:03;;;;;;;32.72;14.38;;;;;;;0.05;100.00;94923.63;1022255;29;20096;-67
2023/03/06 01:27:34;;;;;;;33.30;13.70;;;;;;;0.11;100.00;94925.34;1018055;29;20135;-68
2023/03/06 01:28:05;;;;;;;32.47;12.93;;;;;;;0.12;100.00;94932.06;1014436;29;20585;-68
2023/03/06 01:28:36;;;;;;;28.90;13.23;;;;;;;0.08;100.00;94923.19;1018416;29;20035;-66
2023/03/06 01:29:06;;;;;;;30.92;13.48;;;;;;;0.09;100.00;94927.34;1014578;29;20039;-68
2023/03/06 01:29:37;;;;;;;33.38;13.35;;;;;;;-0.01;100.00;94914.94;1021535;29;20734;-67
2023/03/06 01:30:08;;;;;;;26.55;12.18;;;;;;;0.04;100.00;94922.06;1018212;29;20028;-69
2023/03/06 01:30:38;;;;;;;32.50;13.78;;;;;;;0.08;100.00;94923.19;1018473;28;20425;-66
2023/03/06 01:31:09;;;;;;;29.80;13.35;;;;;;;0.07;100.00;94918.22;1026244;28;20029;-68
2023/03/06 01:31:39;;;;;;;30.60;14.27;;;;;;;0.06;100.00;94925.19;1022672;28;20450;-68
2023/03/06 01:32:10;;;;;;;38.10;14.63;;;;;;;0.06;100.00;94930.34;1026265;28;20102;-68
2023/03/06 01:32:40;;;;;;;28.42;12.90;;;;;;;0.04;100.00;94914.31;1022235;28;20038;-68
2023/03/06 01:33:11;;;;;;;28.42;13.23;;;;;;;-0.10;100.00;94898.22;1020884;29;20039;-66
2023/03/06 01:33:41;;;;;;;28.67;13.35;;;;;;;0.06;100.00;94921.81;1022357;29;20027;-66
2023/03/06 01:34:12;;;;;;;32.97;13.68;;;;;;;0.00;100.00;94915.75;1022198;28;20039;-68
2023/03/06 01:34:42;;;;;;;29.92;13.90;;;;;;;0.07;100.00;94916.47;1018227;29;20252;-68
2023/03/06 01:35:13;;;;;;;31.63;13.80;;;;;;;0.06;100.00;94920.03;1022089;29;20051;-64
2023/03/06 01:35:43;;;;;;;27.05;12.18;;;;;;;0.06;100.00;94914.88;1022001;28;20684;-66
2023/03/06 01:36:14;;;;;;;28.85;13.50;;;;;;;0.07;100.00;94913.88;1018251;29;20027;-66
2023/03/06 01:36:44;;;;;;;35.78;14.15;;;;;;;0.05;100.00;94903.00;1014167;29;20883;-68
2023/03/06 01:37:15;;;;;;;31.50;13.32;;;;;;;0.07;100.00;94918.22;1018346;29;20528;-67
2023/03/06 01:37:45;;;;;;;32.80;14.20;;;;;;;0.01;100.00;94901.84;1018297;28;20706;-69
2023/03/06 01:38:16;;;;;;;31.08;14.23;;;;;;;0.06;100.00;94920.03;1022298;28;20031;-68
2023/03/06 01:38:46;;;;;;;30.70;12.80;;;;;;;0.07;100.00;94911.31;1021963;29;20669;-68
2023/03/06 01:39:16;;;;;;;28.98;13.32;;;;;;;0.09;100.00;94913.66;1021333;28;20460;-68
2023/03/06 01:39:47;;;;;;;31.20;13.18;;;;;;;0.10;100.00;94910.06;1022098;28;20177;-67
2023/03/06 01:40:18;;;;;;;30.00;13.77;;;;;;;0.01;100.00;94901.84;1018142;29;20117;-68
2023/03/06 01:40:48;;;;;;;30.42;13.13;;;;;;;0.07;100.00;94913.06;1013901;29;20036;-67
2023/03/06 01:41:20;;;;;;;28.42;13.02;;;;;;;0.09;100.00;94913.66;1014232;29;20456;-65
2023/03/06 01:41:50;;;;;;;26.74;12.82;;;;;;;0.08;100.00;94915.47;1014611;29;20044;-68
2023/03/06 01:42:21;;;;;;;31.23;13.88;;;;;;;0.07;100.00;94916.47;1010628;29;20036;-69
2023/03/06 01:42:51;;;;;;;25.25;13.10;;;;;;;0.05;100.00;94921.03;1014031;29;20039;-68
2023/03/06 01:43:25;;;;;;;31.65;13.25;;;;;;;0.08;100.00;94912.88;1017737;29;20028;-65
2023/03/06 01:43:55;;;;;;;29.24;11.62;;;;;;;0.07;100.00;94911.31;1017908;29;20027;-67
2023/03/06 01:44:26;;;;;;;31.88;14.07;;;;;;;0.05;100.00;94910.72;1022342;28;20542;-69
2023/03/06 01:45:00;;;;;;;29.20;14.38;;;;;;;0.05;100.00;94912.53;1018053;29;20039;-67
2023/03/06 01:45:33;;;;;;;29.70;13.50;;;;;;;0.06;100.00;94914.09;1018164;29;20557;-68
2023/03/06 01:46:15;;;;;;;26.94;13.06;;;;;;;0.03;100.00;94910.16;1020304;28;20454;-66
2023/03/06 01:46:46;;;;;;;28.76;12.48;;;;;;;0.05;100.00;94908.16;1024440;28;20037;-67
2023/03/06 01:47:16;;;;;;;26.77;13.15;;;;;;;0.05;100.00;94909.94;1026211;28;20030;-68
2023/03/06 01:47:47;;;;;;;29.92;12.98;;;;;;;0.03;100.00;94905.00;1026035;28;20037;-67
2023/03/06 01:48:18;;;;;;;32.35;13.80;;;;;;;0.06;100.00;94912.28;1026052;28;20397;-69
2023/03/06 01:48:53;;;;;;;35.48;14.30;;;;;;;0.06;100.00;94907.13;1020764;28;20039;-66
2023/03/06 01:49:30;;;;;;;32.46;13.92;;;;;;;0.04;100.00;94904.00;1016699;29;20023;-67
2023/03/06 01:50:02;;;;;;;27.20;13.56;;;;;;;-0.01;100.00;94890.97;1022015;28;20031;-68
2023/03/06 01:50:33;;;;;;;28.96;14.18;;;;;;;-0.05;100.00;94889.81;1018079;29;20052;-65
2023/03/06 01:51:03;;;;;;;30.10;13.65;;;;;;;-0.03;100.00;94901.50;1022047;29;20476;-66
2023/03/06 01:51:37;;;;;;;27.05;13.00;;;;;;;-0.06;100.00;94891.63;1014217;29;20032;-67
2023/03/06 01:52:10;;;;;;;25.52;13.46;;;;;;;0.00;100.00;94905.44;1018290;29;20030;-66
2023/03/06 01:52:53;;;;;;;31.56;14.10;;;;;;;-0.10;100.00;94880.19;1022236;28;20517;-66
2023/03/06 01:53:23;;;;;;;31.62;13.74;;;;;;;-0.06;100.00;94885.69;1014076;29;20020;-67
2023/03/06 01:53:54;;;;;;;30.80;13.65;;;;;;;0.02;100.00;94897.47;1018207;29;20036;-67
2023/03/06 01:54:27;;;;;;;31.17;14.55;;;;;;;0.01;100.00;94896.69;1019728;29;20031;-68
2023/03/06 01:55:07;;;;;;;29.88;13.70;;;;;;;-0.02;100.00;94892.75;1018139;29;20039;-66
2023/03/06 01:55:37;;;;;;;31.10;13.73;;;;;;;-0.01;100.00;94894.31;1011950;29;20040;-67
2023/03/06 01:56:09;;;;;;;30.73;13.60;;;;;;;0.01;100.00;94883.03;1010393;29;20033;-68
2023/03/06 01:56:39;;;;;;;30.54;13.90;;;;;;;0.01;100.00;94888.19;1015722;29;20032;-67
2023/03/06 01:57:29;;;;;;;28.70;13.35;;;;;;;0.07;100.00;94890.69;1017939;29;20509;-68
2023/03/06 01:58:02;;;;;;;30.66;12.84;;;;;;;0.04;100.00;94892.91;1018233;29;20518;-66
2023/03/06 01:58:32;;;;;;;27.80;13.28;;;;;;;-0.01;100.00;94885.81;1017678;28;20033;-68
2023/03/06 01:59:03;;;;;;;28.35;12.90;;;;;;;-0.03;100.00;94886.03;1021754;28;20019;-67
2023/03/06 01:59:34;;;;;;;33.65;13.48;;;;;;;0.02;100.00;94890.53;1013258;29;20038;-66
2023/03/06 02:00:16;;;;;;;31.02;14.63;;;;;;;0.04;100.00;94893.69;1018061;29;20648;-67
2023/03/06 02:00:46;;;;;;;30.20;14.02;;;;;;;0.05;100.00;94892.69;1021945;29;20027;-68
2023/03/06 02:01:17;;;;;;;27.73;13.25;;;;;;;0.04;100.00;94892.91;1023793;28;20476;-68
2023/03/06 02:01:47;;;;;;;29.05;14.48;;;;;;;0.05;100.00;94892.69;1023635;28;20029;-67
2023/03/06 02:02:18;;;;;;;33.65;13.45;;;;;;;0.03;100.00;94894.66;1022290;29;20482;-67
2023/03/06 02:03:18;;;;;;;32.15;14.35;;;;;;;0.03;100.00;94899.06;1022104;29;20090;-67
2023/03/06 02:03:49;;;;;;;26.88;12.52;;;;;;;0.00;100.00;94889.97;1018084;29;20546;-67
2023/03/06 02:04:19;;;;;;;33.90;14.25;;;;;;;-0.08;100.00;94882.53;1022168;28;20027;-67
2023/03/06 02:04:50;;;;;;;29.70;13.60;;;;;;;-0.04;100.00;94887.03;1022110;28;20038;-67
2023/03/06 02:05:20;;;;;;;33.05;13.75;;;;;;;-0.09;100.00;94875.81;1022127;28;20038;-67
2023/03/06 02:05:51;;;;;;;27.83;12.77;;;;;;;0.02;100.00;94887.16;1026044;28;20134;-68
2023/03/06 02:06:22;;;;;;;29.42;14.18;;;;;;;0.06;100.00;94886.50;1018137;29;20118;-67
2023/03/06 02:06:52;;;;;;;26.40;12.68;;;;;;;-0.01;100.00;94872.91;1018126;29;20027;-67
2023/03/06 02:07:22;;;;;;;31.38;14.65;;;;;;;0.04;100.00;94885.16;1018225;29;20058;-66
2023/03/06 02:07:53;;;;;;;30.80;13.82;;;;;;;0.04;100.00;94880.78;1018237;29;20472;-65
2023/03/06 02:08:24;;;;;;;26.63;13.32;;;;;;;0.03;100.00;94878.41;1017989;29;20027;-66
2023/03/06 02:08:54;;;;;;;26.70;13.18;;;;;;;0.05;100.00;94879.00;1022016;29;20038;-67
2023/03/06 02:09:28;;;;;;;34.75;13.40;;;;;;;0.05;100.00;94873.84;1021282;28;20106;-67
2023/03/06 02:09:59;;;;;;;28.88;13.76;;;;;;;0.06;100.00;94878.75;1021863;29;20458;-67
2023/03/06 02:10:29;;;;;;;31.85;13.80;;;;;;;0.01;100.00;94870.13;1025196;28;20035;-67
2023/03/06 02:11:13;;;;;;;28.60;13.15;;;;;;;0.05;100.00;94873.84;1022161;29;20473;-67
2023/03/06 02:11:45;;;;;;;28.54;13.40;;;;;;;0.02;100.00;94882.78;1021837;29;20219;-67
2023/03/06 02:12:17;;;;;;;30.12;13.28;;;;;;;-0.06;100.00;94870.22;1021927;28;20115;-67
2023/03/06 02:12:48;;;;;;;34.48;14.76;;;;;;;-0.03;100.00;94869.78;1022100;29;20027;-68
2023/03/06 02:13:18;;;;;;;28.88;13.65;;;;;;;0.00;100.00;94874.50;1018310;29;20178;-68
2023/03/06 02:13:50;;;;;;;28.77;13.05;;;;;;;-0.03;100.00;94869.78;1012831;29;20031;-68
2023/03/06 02:14:20;;;;;;;30.46;12.98;;;;;;;-0.15;100.00;94856.81;1018228;29;20474;-67
2023/03/06 02:14:51;;;;;;;33.75;14.57;;;;;;;-0.03;100.00;94869.78;1026040;28;20030;-66
2023/03/06 02:15:22;;;;;;;28.50;13.10;;;;;;;-0.09;100.00;94863.69;1026032;28;20688;-67
2023/03/06 02:15:52;;;;;;;29.96;14.00;;;;;;;-0.06;100.00;94875.38;1010270;29;20060;-67
2023/03/06 02:16:25;;;;;;;29.77;14.13;;;;;;;-0.04;100.00;94870.75;1010249;29;20871;-68
2023/03/06 02:16:55;;;;;;;30.60;14.96;;;;;;;-0.03;100.00;94874.94;1021995;28;20019;-67
2023/03/06 02:17:26;;;;;;;28.40;13.30;;;;;;;-0.07;100.00;94869.44;1026096;28;20507;-67
2023/03/06 02:17:56;;;;;;;33.50;13.75;;;;;;;-0.05;100.00;94872.56;1022110;29;20027;-66
2023/03/06 02:18:27;;;;;;;28.58;12.98;;;;;;;-0.18;100.00;94841.00;1010536;29;20595;-68
2023/03/06 02:18:58;;;;;;;26.20;13.27;;;;;;;-0.01;100.00;94868.53;1018861;28;20118;-69
2023/03/06 02:19:32;;;;;;;27.42;13.38;;;;;;;-0.05;100.00;94867.41;1017351;29;20027;-68
2023/03/06 02:20:09;;;;;;;32.72;13.50;;;;;;;-0.04;100.00;94873.34;1010279;29;20103;-66
2023/03/06 02:20:47;;;;;;;26.18;13.54;;;;;;;-0.02;100.00;94866.19;1010188;29;20021;-67
2023/03/06 02:21:22;;;;;;;26.82;12.84;;;;;;;-0.06;100.00;94870.22;1014258;29;20031;-66
2023/03/06 02:21:52;;;;;;;29.08;13.08;;;;;;;-0.06;100.00;94867.63;1022800;29;20023;-68
2023/03/06 02:22:23;;;;;;;32.28;13.98;;;;;;;-0.05;100.00;94864.03;1022676;28;20055;-68
2023/03/06 02:23:01;;;;;;;25.95;12.77;;;;;;;-0.11;100.00;94863.13;1020511;29;20023;-65
2023/03/06 02:23:39;;;;;;;30.54;13.60;;;;;;;-0.07;100.00;94868.63;1023044;29;20291;-67
2023/03/06 02:24:12;;;;;;;29.90;12.82;;;;;;;-0.06;100.00;94865.06;1020972;29;20070;-67